createdAt,value
2019-03-31T00:02:12.072Z,40.53
2019-03-31T00:04:40.461Z,47.13
2019-03-31T00:07:08.851Z,50.10
2019-03-31T00:09:37.255Z,51.63
2019-03-31T00:12:05.704Z,55.50
2019-03-31T00:14:34.090Z,58.13
2019-03-31T00:17:02.495Z,57.87
2019-03-31T00:19:30.871Z,51.77
2019-03-31T00:21:59.257Z,54.43
2019-03-31T00:24:27.651Z,56.90
2019-03-31T00:26:56.031Z,53.60
2019-03-31T00:29:24.412Z,56.57
2019-03-31T00:31:52.817Z,53.87
2019-03-31T00:34:21.203Z,53.87
2019-03-31T00:36:49.584Z,56.40
2019-03-31T00:39:17.975Z,58.30
2019-03-31T00:41:46.361Z,57.77
2019-03-31T00:44:14.744Z,54.27
2019-03-31T00:46:43.135Z,54.63
2019-03-31T00:49:11.517Z,55.77
2019-03-31T00:51:39.899Z,59.13
2019-03-31T00:54:08.296Z,57.23
2019-03-31T00:56:36.680Z,56.83
2019-03-31T00:59:05.056Z,59.37
2019-03-31T01:01:44.784Z,57.83
2019-03-31T01:04:13.228Z,55.03
2019-03-31T01:06:41.704Z,47.97
2019-03-31T01:09:22.366Z,58.03
2019-03-31T01:11:51.099Z,61.53
2019-03-31T01:14:19.736Z,54.83
2019-03-31T01:16:48.288Z,70.90
2019-03-31T01:19:17.818Z,67.63
2019-03-31T01:21:46.197Z,63.13
2019-03-31T01:24:14.715Z,64.17
2019-03-31T01:26:43.192Z,58.10
2019-03-31T01:29:12.680Z,61.53
2019-03-31T01:31:50.123Z,66.67
2019-03-31T01:34:11.383Z,64.07
2019-03-31T01:36:39.772Z,49.37
2019-03-31T01:39:09.388Z,50.90
2019-03-31T01:41:37.843Z,64.47
2019-03-31T01:44:06.232Z,65.90
2019-03-31T01:46:34.615Z,70.17
2019-03-31T01:49:03.079Z,70.73
2019-03-31T01:51:31.451Z,69.67
2019-03-31T01:53:59.831Z,71.00
2019-03-31T01:56:28.220Z,64.97
2019-03-31T01:58:56.595Z,78.90
2019-03-31T02:01:25.055Z,70.03
2019-03-31T02:03:53.603Z,70.93
2019-03-31T02:06:22.010Z,86.20
2019-03-31T02:08:50.387Z,79.57
2019-03-31T02:11:18.767Z,81.47
2019-03-31T02:13:47.160Z,83.53
2019-03-31T02:16:15.543Z,81.00
2019-03-31T02:18:43.927Z,85.13
2019-03-31T02:21:12.313Z,76.27
2019-03-31T02:23:40.692Z,82.30
2019-03-31T02:26:09.081Z,93.50
2019-03-31T02:28:37.472Z,107.17
2019-03-31T02:31:05.864Z,100.17
2019-03-31T02:33:34.244Z,96.80
2019-03-31T02:36:02.641Z,96.30
2019-03-31T02:38:31.039Z,100.70
2019-03-31T02:40:59.597Z,107.43
2019-03-31T02:43:27.990Z,116.23
2019-03-31T02:45:56.386Z,130.27
2019-03-31T02:48:24.773Z,103.80
2019-03-31T02:50:53.156Z,117.40
2019-03-31T02:53:22.138Z,94.67
2019-03-31T02:55:50.945Z,103.50
2019-03-31T02:58:19.521Z,113.23
2019-03-31T03:00:48.154Z,152.07
2019-03-31T03:03:17.215Z,159.53
2019-03-31T03:05:46.380Z,166.93
2019-03-31T03:08:16.658Z,180.73
2019-03-31T03:10:45.223Z,167.20
2019-03-31T03:13:14.652Z,176.60
2019-03-31T03:15:51.617Z,183.43
2019-03-31T03:18:19.993Z,189.83
2019-03-31T03:20:48.381Z,212.23
2019-03-31T03:23:16.781Z,224.83
2019-03-31T03:25:55.647Z,233.40
2019-03-31T03:28:15.264Z,239.73
2019-03-31T03:30:43.914Z,252.07
2019-03-31T03:33:16.390Z,255.43
2019-03-31T03:35:42.565Z,248.33
2019-03-31T03:38:10.940Z,269.63
2019-03-31T03:40:39.328Z,271.83
2019-03-31T03:43:07.731Z,283.10
2019-03-31T03:45:36.193Z,268.73
2019-03-31T03:48:04.643Z,293.77
2019-03-31T03:50:33.045Z,266.63
2019-03-31T03:53:01.437Z,288.03
2019-03-31T03:55:30.053Z,304.70
2019-03-31T03:57:58.449Z,284.63
2019-03-31T04:00:26.847Z,291.23
2019-03-31T04:02:56.079Z,300.47
2019-03-31T04:05:24.463Z,316.03
2019-03-31T04:07:52.848Z,334.73
2019-03-31T04:10:43.888Z,343.40
2019-03-31T04:13:12.446Z,333.13
2019-03-31T04:15:40.920Z,370.20
2019-03-31T04:18:09.584Z,369.97
2019-03-31T04:20:39.544Z,347.17
2019-03-31T04:23:08.081Z,375.73
2019-03-31T04:25:36.548Z,361.43
2019-03-31T04:28:04.936Z,368.43
2019-03-31T04:30:33.312Z,358.27
2019-03-31T04:33:01.717Z,361.23
2019-03-31T04:35:30.327Z,371.87
2019-03-31T04:37:58.724Z,377.20
2019-03-31T04:40:27.119Z,349.93
2019-03-31T04:42:55.505Z,308.47
2019-03-31T04:45:23.880Z,349.37
2019-03-31T04:47:52.261Z,368.90
2019-03-31T04:50:20.663Z,351.70
2019-03-31T04:52:49.046Z,341.83
2019-03-31T04:55:17.428Z,317.30
2019-03-31T04:57:45.815Z,335.03
2019-03-31T05:00:14.265Z,303.37
2019-03-31T05:02:42.660Z,372.43
2019-03-31T05:05:11.047Z,373.83
2019-03-31T05:07:39.433Z,322.33
2019-03-31T05:10:07.961Z,343.50
2019-03-31T05:12:36.365Z,346.57
2019-03-31T05:15:06.202Z,409.80
2019-03-31T05:17:35.887Z,414.67
2019-03-31T05:20:05.712Z,437.90
2019-03-31T05:22:34.092Z,441.23
2019-03-31T05:25:02.663Z,455.60
2019-03-31T05:27:31.079Z,455.50
2019-03-31T05:29:59.447Z,494.60
2019-03-31T05:32:27.844Z,441.90
2019-03-31T05:34:56.232Z,440.73
2019-03-31T05:37:24.644Z,421.30
2019-03-31T05:39:53.027Z,436.97
2019-03-31T05:42:21.409Z,437.77
2019-03-31T05:44:49.807Z,468.93
2019-03-31T05:47:18.195Z,497.40
2019-03-31T05:49:46.578Z,500.87
2019-03-31T05:52:14.974Z,496.03
2019-03-31T05:54:43.368Z,521.63
2019-03-31T05:57:11.751Z,523.03
2019-03-31T05:59:40.156Z,526.87
2019-03-31T06:02:08.535Z,477.77
2019-03-31T06:04:36.932Z,463.17
2019-03-31T06:07:05.316Z,453.20
2019-03-31T06:09:33.707Z,426.50
2019-03-31T06:12:02.100Z,459.37
2019-03-31T06:14:30.483Z,450.70
2019-03-31T06:16:58.887Z,475.90
2019-03-31T06:19:27.280Z,432.60
2019-03-31T06:21:55.668Z,430.73
2019-03-31T06:24:24.057Z,443.23
2019-03-31T06:26:52.459Z,443.00
2019-03-31T06:29:20.851Z,414.47
2019-03-31T06:31:49.235Z,408.20
2019-03-31T06:34:17.631Z,328.90
2019-03-31T06:36:46.020Z,309.80
2019-03-31T06:39:14.405Z,276.13
2019-03-31T06:41:42.795Z,263.77
2019-03-31T06:44:11.180Z,248.90
2019-03-31T06:46:39.559Z,244.80
2019-03-31T06:49:07.956Z,229.33
2019-03-31T06:51:36.347Z,229.00
2019-03-31T06:54:04.748Z,225.20
2019-03-31T06:56:33.131Z,201.73
2019-03-31T06:59:01.524Z,210.50
2019-03-31T07:01:29.902Z,178.20
2019-03-31T07:03:58.300Z,174.87
2019-03-31T07:06:26.687Z,169.80
2019-03-31T07:08:55.076Z,160.50
2019-03-31T07:11:23.484Z,137.30
2019-03-31T07:13:51.877Z,141.50
2019-03-31T07:16:20.263Z,130.40
2019-03-31T07:18:48.649Z,128.87
2019-03-31T07:21:17.039Z,128.50
2019-03-31T07:23:45.428Z,118.83
2019-03-31T07:26:13.824Z,112.80
2019-03-31T07:28:42.221Z,114.83
2019-03-31T07:31:10.595Z,105.20
2019-03-31T07:33:39.229Z,97.50
2019-03-31T07:36:07.611Z,89.47
2019-03-31T07:38:39.170Z,90.03
2019-03-31T07:41:12.488Z,84.37
2019-03-31T07:43:36.232Z,79.93
2019-03-31T07:46:04.608Z,76.57
2019-03-31T07:48:32.999Z,80.17
2019-03-31T07:51:01.391Z,79.20
2019-03-31T07:53:29.846Z,76.57
2019-03-31T07:55:58.248Z,69.70
2019-03-31T07:58:26.647Z,73.27
2019-03-31T08:00:55.013Z,63.27
2019-03-31T08:03:23.411Z,69.73
2019-03-31T08:05:51.801Z,64.00
2019-03-31T08:08:20.191Z,70.73
2019-03-31T08:10:48.587Z,64.93
2019-03-31T08:13:16.975Z,58.27
2019-03-31T08:15:45.367Z,64.60
2019-03-31T08:18:13.752Z,62.67
2019-03-31T08:20:42.128Z,58.27
2019-03-31T08:23:10.514Z,60.53
2019-03-31T08:25:38.907Z,59.77
2019-03-31T08:28:07.292Z,65.83
2019-03-31T08:30:35.676Z,67.73
2019-03-31T08:33:04.074Z,68.77
2019-03-31T08:35:46.269Z,69.87
2019-03-31T08:38:02.560Z,62.67
2019-03-31T08:40:30.952Z,67.23
2019-03-31T08:42:59.358Z,57.07
2019-03-31T08:45:30.406Z,71.17
2019-03-31T08:47:57.859Z,66.03
2019-03-31T08:50:26.243Z,66.60
2019-03-31T08:52:54.640Z,65.47
2019-03-31T08:55:23.024Z,58.30
2019-03-31T08:57:51.423Z,51.90
2019-03-31T09:00:24.368Z,56.03
2019-03-31T09:02:52.755Z,50.00
2019-03-31T09:05:21.146Z,50.13
2019-03-31T09:07:49.781Z,51.10
2019-03-31T09:10:18.239Z,54.67
2019-03-31T09:12:48.494Z,57.33
2019-03-31T09:15:16.815Z,50.47
2019-03-31T09:17:45.196Z,57.37
2019-03-31T09:20:14.624Z,55.17
2019-03-31T09:22:43.025Z,51.93
2019-03-31T09:25:13.011Z,54.47
2019-03-31T09:27:41.401Z,52.67
2019-03-31T09:30:11.519Z,48.67
2019-03-31T09:32:39.909Z,53.47
2019-03-31T09:35:09.141Z,45.10
2019-03-31T09:37:37.537Z,49.73
2019-03-31T09:40:10.680Z,49.10
2019-03-31T09:42:39.088Z,55.60
2019-03-31T09:45:09.312Z,49.40
2019-03-31T09:47:38.748Z,53.87
2019-03-31T09:50:09.571Z,55.00
2019-03-31T09:52:37.979Z,49.13
2019-03-31T09:55:07.901Z,48.00
2019-03-31T09:57:36.289Z,51.13
2019-03-31T10:00:10.491Z,54.77
2019-03-31T10:02:38.943Z,47.83
2019-03-31T10:05:07.879Z,52.27
2019-03-31T10:07:37.137Z,47.57
2019-03-31T10:10:08.596Z,45.20
2019-03-31T10:12:36.996Z,46.53
2019-03-31T10:15:07.315Z,46.67
2019-03-31T10:17:35.707Z,48.23
2019-03-31T10:20:05.437Z,52.43
2019-03-31T10:22:33.831Z,45.43
2019-03-31T10:25:02.280Z,47.50
2019-03-31T10:27:30.660Z,47.40
2019-03-31T10:29:59.295Z,47.30
2019-03-31T10:32:27.676Z,48.27
2019-03-31T10:34:56.070Z,44.03
2019-03-31T10:37:24.459Z,42.57
2019-03-31T10:39:52.860Z,44.57
2019-03-31T10:42:21.240Z,38.67
2019-03-31T10:44:49.628Z,42.13
2019-03-31T10:47:18.011Z,39.87
2019-03-31T10:49:46.401Z,44.60
2019-03-31T10:52:14.860Z,41.80
2019-03-31T10:54:43.244Z,40.63
2019-03-31T10:57:11.640Z,35.97
2019-03-31T10:59:40.040Z,32.27
2019-03-31T11:02:08.423Z,28.87
2019-03-31T11:04:36.804Z,29.47
2019-03-31T11:07:05.200Z,30.83
2019-03-31T11:09:34.504Z,28.87
2019-03-31T11:12:03.049Z,26.90
2019-03-31T11:14:31.460Z,27.93
2019-03-31T11:16:59.867Z,31.27
2019-03-31T11:19:28.259Z,31.87
2019-03-31T11:21:58.288Z,26.17
2019-03-31T11:24:26.686Z,28.17
2019-03-31T11:26:55.067Z,28.80
2019-03-31T11:29:23.452Z,24.20
2019-03-31T11:31:51.848Z,30.33
2019-03-31T11:34:20.235Z,31.40
2019-03-31T11:36:48.633Z,30.23
2019-03-31T11:39:17.026Z,31.87
2019-03-31T11:41:45.407Z,27.33
2019-03-31T11:44:13.810Z,27.10
2019-03-31T11:46:42.189Z,30.23
2019-03-31T11:49:10.587Z,29.97
2019-03-31T11:51:38.972Z,26.53
2019-03-31T11:54:07.347Z,26.27
2019-03-31T11:56:35.743Z,26.80
2019-03-31T11:59:04.136Z,25.60
2019-03-31T12:01:32.528Z,28.80
2019-03-31T12:04:00.917Z,29.20
2019-03-31T12:06:29.299Z,26.50
2019-03-31T12:08:57.700Z,26.83
2019-03-31T12:11:26.081Z,27.73
2019-03-31T12:13:54.477Z,29.30
2019-03-31T12:16:22.863Z,25.20
2019-03-31T12:18:51.244Z,28.97
2019-03-31T12:21:19.640Z,26.53
2019-03-31T12:23:48.024Z,31.07
2019-03-31T12:26:16.399Z,29.63
2019-03-31T12:28:44.791Z,27.97
2019-03-31T12:31:13.196Z,26.37
2019-03-31T12:33:41.586Z,24.67
2019-03-31T12:36:09.973Z,23.23
2019-03-31T12:38:38.365Z,26.87
2019-03-31T12:41:06.758Z,26.77
2019-03-31T12:43:35.215Z,27.33
2019-03-31T12:46:03.615Z,26.00
2019-03-31T12:48:31.999Z,25.33
2019-03-31T12:51:00.390Z,24.43
2019-03-31T12:53:28.782Z,22.83
2019-03-31T12:56:00.331Z,22.07
2019-03-31T12:58:27.292Z,28.80
2019-03-31T13:00:55.684Z,26.27
2019-03-31T13:03:24.078Z,26.47
2019-03-31T13:05:52.455Z,28.27
2019-03-31T13:08:20.852Z,25.00
2019-03-31T13:10:49.240Z,23.97
2019-03-31T13:13:17.635Z,22.73
2019-03-31T13:15:46.016Z,25.30
2019-03-31T13:18:14.653Z,22.73
2019-03-31T13:20:43.039Z,22.70
2019-03-31T13:23:11.422Z,23.15
2019-03-31T13:25:39.814Z,26.70
2019-03-31T13:28:08.209Z,29.53
2019-03-31T13:30:36.591Z,21.02
2019-03-31T13:33:05.060Z,24.87
2019-03-31T13:35:33.470Z,22.27
2019-03-31T13:38:11.000Z,24.20
2019-03-31T13:40:31.967Z,21.57
2019-03-31T13:43:00.378Z,22.03
2019-03-31T13:45:28.759Z,22.80
2019-03-31T13:47:58.853Z,27.77
2019-03-31T13:50:27.319Z,22.27
2019-03-31T13:52:55.716Z,20.67
2019-03-31T13:55:24.100Z,21.23
2019-03-31T13:57:53.488Z,21.50
2019-03-31T14:00:40.212Z,24.70
2019-03-31T14:03:08.992Z,25.60
2019-03-31T14:05:37.372Z,22.30
2019-03-31T14:08:05.756Z,22.73
2019-03-31T14:10:34.232Z,22.00
2019-03-31T14:13:02.776Z,22.03
2019-03-31T14:15:31.159Z,22.97
2019-03-31T14:17:59.796Z,24.40
2019-03-31T14:20:28.219Z,21.02
2019-03-31T14:22:56.603Z,25.85
2019-03-31T14:25:25.243Z,20.60
2019-03-31T14:27:53.636Z,21.63
2019-03-31T14:30:22.263Z,20.83
2019-03-31T14:32:50.648Z,18.70
2019-03-31T14:35:19.049Z,20.03
2019-03-31T14:37:47.431Z,18.67
2019-03-31T14:40:15.906Z,20.37
2019-03-31T14:42:44.288Z,19.50
2019-03-31T14:45:15.751Z,17.47
2019-03-31T14:47:44.370Z,14.93
2019-03-31T14:50:15.854Z,19.47
2019-03-31T14:52:44.227Z,18.77
2019-03-31T14:55:12.629Z,17.13
2019-03-31T14:57:41.035Z,16.67
2019-03-31T15:00:15.064Z,13.83
2019-03-31T15:02:39.585Z,15.60
2019-03-31T15:05:08.045Z,16.80
2019-03-31T15:07:36.442Z,17.27
2019-03-31T15:10:05.876Z,13.63
2019-03-31T15:12:34.252Z,16.40
2019-03-31T15:15:02.643Z,15.97
2019-03-31T15:17:31.019Z,12.87
2019-03-31T15:19:59.399Z,15.33
2019-03-31T15:22:27.795Z,14.80
2019-03-31T15:24:56.188Z,20.13
2019-03-31T15:27:24.642Z,15.70
2019-03-31T15:29:53.031Z,19.37
2019-03-31T15:32:21.411Z,15.40
2019-03-31T15:34:49.808Z,16.17
2019-03-31T15:37:18.187Z,15.03
2019-03-31T15:39:46.569Z,16.30
2019-03-31T15:42:14.960Z,14.30
2019-03-31T15:44:43.335Z,17.87
2019-03-31T15:47:11.716Z,18.67
2019-03-31T15:49:40.106Z,18.23
2019-03-31T15:52:08.967Z,15.73
2019-03-31T15:54:37.461Z,16.97
2019-03-31T15:57:05.849Z,20.77
2019-03-31T15:59:34.240Z,17.50
2019-03-31T16:02:02.624Z,16.63
2019-03-31T16:04:31.020Z,18.43
2019-03-31T16:06:59.400Z,18.20
2019-03-31T16:09:27.785Z,21.23
2019-03-31T16:11:56.179Z,19.07
2019-03-31T16:14:24.567Z,19.57
2019-03-31T16:16:52.964Z,20.40
2019-03-31T16:19:21.400Z,16.43
2019-03-31T16:21:49.808Z,15.30
2019-03-31T16:24:19.843Z,18.57
2019-03-31T16:26:48.230Z,15.60
2019-03-31T16:29:16.616Z,15.53
2019-03-31T16:31:44.997Z,16.33
2019-03-31T16:34:13.385Z,17.07
2019-03-31T16:36:41.776Z,16.63
2019-03-31T16:39:10.156Z,15.10
2019-03-31T16:41:38.539Z,17.13
2019-03-31T16:44:06.935Z,16.70
2019-03-31T16:46:35.323Z,17.13
2019-03-31T16:49:03.719Z,15.57
2019-03-31T16:51:32.120Z,14.37
2019-03-31T16:54:00.492Z,14.47
2019-03-31T16:56:28.887Z,14.57
2019-03-31T16:58:57.275Z,15.03
2019-03-31T17:01:25.656Z,22.37
2019-03-31T17:03:54.051Z,17.70
2019-03-31T17:06:22.511Z,17.80
2019-03-31T17:08:50.968Z,15.50
2019-03-31T17:11:19.352Z,14.10
2019-03-31T17:13:47.734Z,17.37
2019-03-31T17:16:16.115Z,15.57
2019-03-31T17:18:44.511Z,13.83
2019-03-31T17:21:12.947Z,19.20
2019-03-31T17:23:41.356Z,14.10
2019-03-31T17:26:09.748Z,12.47
2019-03-31T17:28:38.158Z,14.47
2019-03-31T17:31:06.540Z,11.33
2019-03-31T17:33:34.988Z,17.23
2019-03-31T17:36:03.436Z,12.27
2019-03-31T17:38:31.817Z,13.83
2019-03-31T17:41:00.212Z,15.70
2019-03-31T17:43:28.596Z,13.13
2019-03-31T17:45:57.255Z,11.30
2019-03-31T17:48:25.652Z,16.13
2019-03-31T17:50:54.037Z,9.97
2019-03-31T17:53:22.428Z,13.70
2019-03-31T17:55:50.808Z,12.50
2019-03-31T17:58:19.196Z,15.77
2019-03-31T18:00:47.588Z,14.53
2019-03-31T18:03:15.970Z,12.47
2019-03-31T18:05:44.348Z,10.40
2019-03-31T18:08:12.740Z,11.27
2019-03-31T18:10:41.135Z,12.43
2019-03-31T18:13:09.518Z,11.00
2019-03-31T18:15:37.893Z,8.90
2019-03-31T18:18:06.284Z,12.97
2019-03-31T18:20:34.681Z,8.97
2019-03-31T18:23:03.053Z,10.63
2019-03-31T18:25:31.432Z,10.17
2019-03-31T18:27:59.808Z,10.90
2019-03-31T18:30:28.187Z,10.23
2019-03-31T18:32:56.576Z,20.23
2019-03-31T18:35:24.947Z,10.23
2019-03-31T18:37:53.328Z,12.13
2019-03-31T18:40:34.296Z,10.37
2019-03-31T18:42:51.829Z,9.33
2019-03-31T18:45:20.200Z,9.60
2019-03-31T18:47:48.572Z,12.03
2019-03-31T18:50:16.960Z,12.70
2019-03-31T18:52:45.343Z,12.83
2019-03-31T18:55:15.448Z,8.77
2019-03-31T18:57:51.460Z,11.33
2019-03-31T19:00:24.499Z,11.20
2019-03-31T19:03:13.872Z,10.07
2019-03-31T19:05:43.892Z,10.80
2019-03-31T19:08:25.596Z,12.20
2019-03-31T19:11:04.576Z,9.93
2019-03-31T19:13:34.596Z,13.33
2019-03-31T19:16:10.364Z,15.77
2019-03-31T19:18:52.327Z,12.73
2019-03-31T19:21:28.328Z,13.13
2019-03-31T19:24:05.955Z,16.67
2019-03-31T19:26:47.591Z,12.03
2019-03-31T19:29:24.028Z,13.27
2019-03-31T19:31:56.982Z,12.97
2019-03-31T19:34:27.007Z,17.70
2019-03-31T19:37:03.075Z,13.33
2019-03-31T19:39:49.535Z,15.43
2019-03-31T19:42:22.495Z,16.53
2019-03-31T19:44:52.597Z,19.23
2019-03-31T19:47:28.734Z,21.10
2019-03-31T19:50:01.726Z,17.17
2019-03-31T19:52:34.260Z,16.17
2019-03-31T19:55:10.135Z,31.27
2019-03-31T19:57:49.174Z,40.87
2019-03-31T20:00:37.333Z,42.57
2019-03-31T20:03:16.152Z,73.67
2019-03-31T20:05:46.425Z,70.87
2019-03-31T20:08:22.151Z,81.93
2019-03-31T20:10:58.304Z,93.23
2019-03-31T20:13:28.340Z,92.40
2019-03-31T20:16:07.079Z,60.77
2019-03-31T20:18:39.811Z,55.90
2019-03-31T20:21:09.832Z,43.83
2019-03-31T20:23:42.756Z,34.73
2019-03-31T20:26:12.783Z,30.37
2019-03-31T20:28:42.879Z,23.00
2019-03-31T20:31:29.212Z,24.00
2019-03-31T20:33:59.225Z,17.00
2019-03-31T20:36:29.251Z,16.83
2019-03-31T20:42:18.951Z,23.50
2019-03-31T20:44:47.330Z,15.23
2019-03-31T20:47:15.719Z,24.40
2019-03-31T20:49:44.105Z,15.13
2019-03-31T20:52:12.481Z,21.63
2019-03-31T20:54:40.864Z,19.60
2019-03-31T20:57:09.255Z,17.20
2019-03-31T20:59:37.722Z,14.67
2019-03-31T21:02:06.301Z,15.90
2019-03-31T21:04:34.671Z,20.20
2019-03-31T21:07:03.054Z,18.43
2019-03-31T21:09:44.260Z,22.47
2019-03-31T21:12:01.546Z,13.80
2019-03-31T21:14:29.923Z,15.90
2019-03-31T21:16:58.311Z,17.30
2019-03-31T21:19:26.695Z,20.50
2019-03-31T21:21:55.085Z,26.60
2019-03-31T21:24:23.451Z,20.77
2019-03-31T21:26:51.843Z,23.03
2019-03-31T21:29:20.223Z,18.30
2019-03-31T21:31:48.615Z,19.97
2019-03-31T21:34:16.991Z,19.63
2019-03-31T21:36:45.369Z,20.60
2019-03-31T21:39:13.763Z,19.47
2019-03-31T21:41:42.127Z,16.87
2019-03-31T21:44:10.515Z,19.50
2019-03-31T21:46:38.903Z,14.17
2019-03-31T21:49:07.299Z,24.80
2019-03-31T21:51:35.663Z,12.27
2019-03-31T21:54:04.046Z,14.03
2019-03-31T21:56:32.439Z,18.17
2019-03-31T21:59:00.815Z,11.77
2019-03-31T22:01:29.203Z,14.27
2019-03-31T22:03:57.587Z,14.43
2019-03-31T22:06:26.033Z,13.13
2019-03-31T22:08:54.437Z,14.00
2019-03-31T22:11:22.820Z,14.00
2019-03-31T22:13:51.200Z,16.87
2019-03-31T22:16:19.656Z,18.47
2019-03-31T22:18:48.027Z,18.63
2019-03-31T22:21:16.400Z,16.67
2019-03-31T22:23:57.401Z,18.43
2019-03-31T22:26:14.894Z,11.73
2019-03-31T22:28:43.391Z,11.87
2019-03-31T22:31:11.903Z,7.97
2019-03-31T22:33:40.278Z,13.50
2019-03-31T22:36:20.975Z,18.90
2019-03-31T22:38:50.811Z,16.17
2019-03-31T22:41:19.252Z,18.27
2019-03-31T22:43:49.279Z,16.13
2019-03-31T22:46:18.102Z,11.13
2019-03-31T22:48:46.539Z,13.20
2019-03-31T22:51:14.960Z,14.83
2019-03-31T22:53:43.331Z,12.10
2019-03-31T22:56:11.720Z,13.07
2019-03-31T22:58:40.095Z,14.13
2019-03-31T23:01:08.480Z,14.83
2019-03-31T23:03:36.863Z,12.50
2019-03-31T23:06:05.250Z,18.10
2019-03-31T23:08:33.627Z,21.20
2019-03-31T23:11:02.019Z,12.43
2019-03-31T23:13:30.400Z,12.30
2019-03-31T23:15:58.779Z,16.67
2019-03-31T23:18:27.188Z,12.00
2019-03-31T23:20:55.559Z,10.23
2019-03-31T23:23:23.937Z,17.43
2019-03-31T23:25:52.416Z,11.50
2019-03-31T23:28:20.790Z,16.40
2019-03-31T23:30:49.164Z,12.43
2019-03-31T23:33:17.552Z,11.27
2019-03-31T23:35:45.923Z,10.53
2019-03-31T23:38:14.304Z,9.03
2019-03-31T23:40:42.684Z,17.73
2019-03-31T23:43:11.057Z,13.10
2019-03-31T23:45:39.452Z,14.80
2019-03-31T23:48:07.830Z,15.50
2019-03-31T23:50:36.203Z,14.70
2019-03-31T23:53:04.588Z,14.13
2019-03-31T23:55:32.964Z,10.17
2019-03-31T23:58:01.352Z,13.70
